Time;durP1;ratioP1;P1;durP2;ratioP2;P2;SDS_P1;SDS_P2;PMS_P1;PMS_P2;Temp;Humidity;BMP_temperature;BMP_pressure;BME280_temperature;BME280_humidity;BME280_pressure;Samples;Min_cycle;Max_cycle;Signal;HPM_P1;HPM_P2
2023/05/24 00:01:13;;;;;;;19.50;7.68;;;;;;;;;;5052501;28;20477;-37
2023/05/24 00:03:39;;;;;;;22.70;6.47;;;;;;;;;;5051992;28;20018;-34
2023/05/24 00:06:05;;;;;;;23.73;8.05;;;;;;;;;;5052061;28;20541;-37
2023/05/24 00:08:31;;;;;;;25.33;7.55;;;;;;;;;;5052249;28;20087;-36
2023/05/24 00:10:57;;;;;;;19.10;6.68;;;;;;;;;;5052603;28;20037;-33
2023/05/24 00:13:23;;;;;;;20.25;6.82;;;;;;;;;;5051558;28;20079;-34
2023/05/24 00:15:50;;;;;;;20.85;6.88;;;;;;;;;;5051964;28;20059;-34
2023/05/24 00:18:19;;;;;;;21.20;6.88;;;;;;;;;;5052045;28;20029;-37
2023/05/24 00:20:45;;;;;;;24.35;7.18;;;;;;;;;;5051381;28;20444;-36
2023/05/24 00:23:11;;;;;;;20.10;6.63;;;;;;;;;;5051967;28;20107;-39
2023/05/24 00:25:37;;;;;;;22.63;6.95;;;;;;;;;;5052097;28;20063;-35
2023/05/24 00:28:03;;;;;;;28.02;6.97;;;;;;;;;;5051895;28;20029;-35
2023/05/24 00:30:29;;;;;;;18.05;7.63;;;;;;;;;;5051923;28;20052;-34
2023/05/24 00:32:55;;;;;;;28.02;7.50;;;;;;;;;;5052058;28;20107;-35
2023/05/24 00:35:21;;;;;;;18.92;6.43;;;;;;;;;;5051524;28;20033;-37
2023/05/24 00:37:47;;;;;;;18.98;6.47;;;;;;;;;;5051896;28;20091;-37
2023/05/24 00:40:13;;;;;;;20.25;6.20;;;;;;;;;;5054489;28;20102;-34
2023/05/24 00:42:39;;;;;;;17.55;5.57;;;;;;;;;;5055381;28;20024;-34
2023/05/24 00:45:05;;;;;;;18.33;6.70;;;;;;;;;;5055389;28;20086;-34
2023/05/24 00:47:31;;;;;;;18.92;6.45;;;;;;;;;;5055919;28;20098;-36
2023/05/24 00:49:57;;;;;;;22.70;6.25;;;;;;;;;;5055431;28;20037;-36
2023/05/24 00:52:23;;;;;;;24.33;6.25;;;;;;;;;;5054522;28;20202;-37
2023/05/24 00:54:50;;;;;;;20.38;6.25;;;;;;;;;;5055624;28;20056;-34
2023/05/24 00:57:17;;;;;;;21.42;6.68;;;;;;;;;;5055377;28;20389;-33
2023/05/24 00:59:44;;;;;;;25.52;6.32;;;;;;;;;;5055405;28;20025;-37
2023/05/24 01:02:10;;;;;;;19.08;6.15;;;;;;;;;;5055501;28;20025;-35
2023/05/24 01:04:37;;;;;;;21.10;6.30;;;;;;;;;;5055265;28;20021;-37
2023/05/24 01:07:29;;;;;;;19.75;5.88;;;;;;;;;;5055081;28;20386;-36
2023/05/24 01:09:58;;;;;;;16.17;5.45;;;;;;;;;;5034518;28;20042;-36
2023/05/24 01:12:28;;;;;;;17.33;6.47;;;;;;;;;;5047471;28;20032;-34
2023/05/24 01:15:14;;;;;;;22.50;6.07;;;;;;;;;;5054988;28;20033;-36
2023/05/24 01:17:48;;;;;;;18.50;5.53;;;;;;;;;;5040829;28;20029;-36
2023/05/24 01:20:16;;;;;;;22.88;5.63;;;;;;;;;;5054764;28;20390;-37
2023/05/24 01:23:04;;;;;;;16.17;4.97;;;;;;;;;;5053339;28;20033;-36
2023/05/24 01:25:49;;;;;;;24.33;6.07;;;;;;;;;;5054890;28;20057;-34
2023/05/24 01:28:17;;;;;;;16.55;5.03;;;;;;;;;;5054759;28;20048;-36
2023/05/24 01:30:43;;;;;;;16.92;5.78;;;;;;;;;;5054796;28;20557;-33
2023/05/24 01:33:10;;;;;;;22.25;6.53;;;;;;;;;;5054588;28;20048;-35
2023/05/24 01:35:39;;;;;;;20.75;5.95;;;;;;;;;;5055016;28;20032;-37
2023/05/24 01:38:09;;;;;;;13.20;5.38;;;;;;;;;;5054725;28;20079;-38
2023/05/24 01:40:37;;;;;;;17.13;6.15;;;;;;;;;;5054450;28;20047;-38
2023/05/24 01:43:03;;;;;;;16.08;5.43;;;;;;;;;;5054770;28;20017;-35
2023/05/24 01:45:29;;;;;;;17.77;6.13;;;;;;;;;;5054679;28;20021;-34
2023/05/24 01:47:55;;;;;;;19.02;6.28;;;;;;;;;;5053203;28;20467;-36
2023/05/24 01:50:47;;;;;;;23.45;6.07;;;;;;;;;;5054003;28;20052;-35
2023/05/24 01:53:15;;;;;;;16.45;5.50;;;;;;;;;;5046274;28;20112;-37
2023/05/24 01:55:42;;;;;;;14.18;4.93;;;;;;;;;;5054492;28;20052;-35
2023/05/24 01:58:09;;;;;;;22.10;6.50;;;;;;;;;;5054321;28;20532;-38
2023/05/24 02:00:35;;;;;;;19.63;6.72;;;;;;;;;;5054116;28;20036;-34
2023/05/24 02:03:02;;;;;;;14.40;5.60;;;;;;;;;;5053784;28;20098;-32
2023/05/24 02:05:28;;;;;;;20.65;5.82;;;;;;;;;;5054143;28;20036;-35
2023/05/24 02:07:53;;;;;;;26.17;6.38;;;;;;;;;;5054117;28;20017;-34
2023/05/24 02:10:19;;;;;;;19.63;6.60;;;;;;;;;;5054106;28;20028;-35
2023/05/24 02:12:45;;;;;;;18.75;5.82;;;;;;;;;;5054038;28;20025;-36
2023/05/24 02:15:13;;;;;;;20.08;5.93;;;;;;;;;;5054225;28;20047;-36
2023/05/24 02:17:39;;;;;;;17.40;5.75;;;;;;;;;;5054300;28;20107;-37
2023/05/24 02:20:05;;;;;;;23.75;6.78;;;;;;;;;;5053578;28;20021;-35
2023/05/24 02:22:31;;;;;;;20.63;5.78;;;;;;;;;;5053558;28;20021;-33
2023/05/24 02:24:57;;;;;;;16.23;5.75;;;;;;;;;;5053646;28;20166;-34
2023/05/24 02:27:23;;;;;;;19.02;5.40;;;;;;;;;;5053741;28;20025;-35
2023/05/24 02:29:49;;;;;;;22.48;6.63;;;;;;;;;;5053473;28;20462;-35
2023/05/24 02:32:15;;;;;;;21.00;6.10;;;;;;;;;;5053458;28;20090;-36
2023/05/24 02:34:41;;;;;;;16.55;5.80;;;;;;;;;;5053316;28;20134;-38
2023/05/24 02:37:07;;;;;;;16.48;5.20;;;;;;;;;;5052249;28;20044;-35
2023/05/24 02:39:33;;;;;;;23.27;6.45;;;;;;;;;;5052996;28;20041;-38
2023/05/24 02:41:59;;;;;;;17.77;5.68;;;;;;;;;;5053260;28;20367;-33
2023/05/24 02:44:25;;;;;;;18.67;5.65;;;;;;;;;;5053271;28;20470;-35
2023/05/24 02:46:51;;;;;;;20.15;6.78;;;;;;;;;;5053108;28;20111;-35
2023/05/24 02:49:17;;;;;;;19.45;5.78;;;;;;;;;;5053427;28;20029;-34
2023/05/24 02:51:43;;;;;;;16.08;5.35;;;;;;;;;;5052800;28;20051;-35
2023/05/24 02:54:09;;;;;;;20.30;5.60;;;;;;;;;;5052733;28;20036;-33
2023/05/24 02:56:36;;;;;;;18.55;5.75;;;;;;;;;;5051824;28;20359;-34
2023/05/24 02:59:02;;;;;;;18.73;5.43;;;;;;;;;;5052962;28;20032;-35
2023/05/24 03:01:28;;;;;;;14.73;5.15;;;;;;;;;;5052105;28;20032;-36
2023/05/24 03:03:54;;;;;;;18.92;5.90;;;;;;;;;;5052910;28;20017;-34
2023/05/24 03:06:20;;;;;;;19.30;5.65;;;;;;;;;;5053268;28;20076;-35
2023/05/24 03:08:48;;;;;;;18.48;6.05;;;;;;;;;;5053042;28;20032;-34
2023/05/24 03:11:14;;;;;;;17.50;6.13;;;;;;;;;;5052924;28;20037;-33
2023/05/24 03:13:40;;;;;;;19.63;5.28;;;;;;;;;;5052542;28;20491;-34
2023/05/24 03:16:06;;;;;;;17.58;6.13;;;;;;;;;;5052719;28;20029;-35
2023/05/24 03:18:32;;;;;;;16.55;5.55;;;;;;;;;;5052811;28;20032;-33
2023/05/24 03:20:58;;;;;;;20.38;5.40;;;;;;;;;;5052620;28;20029;-31
2023/05/24 03:23:24;;;;;;;14.55;6.22;;;;;;;;;;5052814;28;20028;-32
2023/05/24 03:25:50;;;;;;;14.70;5.35;;;;;;;;;;5052639;28;20025;-35
2023/05/24 03:28:16;;;;;;;13.48;5.13;;;;;;;;;;5052849;28;20047;-37
2023/05/24 03:30:42;;;;;;;16.02;6.38;;;;;;;;;;5052892;28;20025;-35
2023/05/24 03:33:08;;;;;;;22.10;6.07;;;;;;;;;;5052927;28;20032;-32
2023/05/24 03:35:34;;;;;;;17.67;5.53;;;;;;;;;;5052707;28;20035;-35
2023/05/24 03:38:00;;;;;;;14.38;5.88;;;;;;;;;;5052933;28;20469;-35
2023/05/24 03:40:31;;;;;;;18.85;6.15;;;;;;;;;;5052366;28;20041;-34
2023/05/24 03:42:57;;;;;;;16.02;5.25;;;;;;;;;;5052770;28;20036;-35
2023/05/24 03:45:23;;;;;;;15.52;5.72;;;;;;;;;;5051780;28;20029;-37
2023/05/24 03:47:48;;;;;;;16.00;5.00;;;;;;;;;;5052128;28;20079;-33
2023/05/24 03:50:14;;;;;;;16.00;5.15;;;;;;;;;;5051761;28;20520;-36
2023/05/24 03:52:41;;;;;;;12.10;5.18;;;;;;;;;;5051741;28;20386;-35
2023/05/24 03:55:08;;;;;;;14.07;4.75;;;;;;;;;;5052030;28;20478;-35
2023/05/24 03:57:34;;;;;;;16.83;5.38;;;;;;;;;;5051723;28;20113;-36
2023/05/24 04:00:00;;;;;;;16.48;6.13;;;;;;;;;;5051181;28;20021;-33
2023/05/24 04:02:26;;;;;;;25.45;6.75;;;;;;;;;;5052093;28;20071;-33
2023/05/24 04:04:52;;;;;;;14.85;4.97;;;;;;;;;;5050061;28;20482;-36
2023/05/24 04:07:18;;;;;;;16.27;4.80;;;;;;;;;;5052103;28;20029;-33
2023/05/24 04:09:44;;;;;;;16.13;4.88;;;;;;;;;;5051943;28;20028;-36
2023/05/24 04:12:10;;;;;;;19.63;4.85;;;;;;;;;;5051753;28;20452;-32
2023/05/24 04:14:36;;;;;;;13.25;4.88;;;;;;;;;;5055660;28;20531;-36
2023/05/24 04:17:04;;;;;;;16.52;5.30;;;;;;;;;;5056192;28;20377;-33
2023/05/24 04:19:30;;;;;;;14.52;4.93;;;;;;;;;;5056239;28;20078;-36
2023/05/24 04:21:56;;;;;;;14.02;4.60;;;;;;;;;;5055890;28;20033;-35
2023/05/24 04:24:22;;;;;;;18.77;5.20;;;;;;;;;;5055733;28;20025;-34
2023/05/24 04:26:49;;;;;;;22.25;5.50;;;;;;;;;;5055718;28;20429;-34
2023/05/24 04:29:15;;;;;;;18.42;6.25;;;;;;;;;;5055502;28;20462;-35
2023/05/24 04:31:43;;;;;;;15.15;5.53;;;;;;;;;;5054519;28;20029;-34
2023/05/24 04:34:11;;;;;;;13.82;5.20;;;;;;;;;;5055029;28;20021;-36
2023/05/24 04:36:38;;;;;;;13.27;4.90;;;;;;;;;;5055524;28;20116;-33
2023/05/24 04:39:04;;;;;;;21.65;5.85;;;;;;;;;;5054969;28;20044;-36
2023/05/24 04:41:31;;;;;;;15.70;5.85;;;;;;;;;;5035793;28;20068;-33
2023/05/24 04:43:58;;;;;;;15.93;5.30;;;;;;;;;;5053136;28;20020;-33
2023/05/24 04:46:25;;;;;;;15.45;5.28;;;;;;;;;;5055990;28;20067;-34
2023/05/24 04:48:52;;;;;;;15.43;5.05;;;;;;;;;;5055586;28;20032;-33
2023/05/24 04:51:18;;;;;;;16.52;4.50;;;;;;;;;;5055873;28;20381;-38
2023/05/24 04:53:44;;;;;;;14.27;4.53;;;;;;;;;;5055429;28;20054;-32
2023/05/24 04:56:13;;;;;;;13.93;4.88;;;;;;;;;;5055475;28;20359;-35
2023/05/24 04:58:39;;;;;;;16.75;5.10;;;;;;;;;;5054785;28;20036;-33
2023/05/24 05:01:05;;;;;;;13.60;5.32;;;;;;;;;;5055208;28;20032;-36
2023/05/24 05:03:31;;;;;;;11.65;4.22;;;;;;;;;;5055420;28;20021;-33
2023/05/24 05:05:58;;;;;;;17.38;4.78;;;;;;;;;;5055461;28;20036;-35
2023/05/24 05:08:24;;;;;;;13.63;4.93;;;;;;;;;;5055076;28;20100;-34
2023/05/24 05:10:50;;;;;;;17.70;5.93;;;;;;;;;;5055363;28;20063;-37
2023/05/24 05:13:16;;;;;;;13.05;4.80;;;;;;;;;;5053943;28;20031;-34
2023/05/24 05:15:42;;;;;;;13.75;5.07;;;;;;;;;;5055121;28;20028;-34
2023/05/24 05:18:08;;;;;;;15.00;4.85;;;;;;;;;;5054953;28;20055;-33
2023/05/24 05:20:34;;;;;;;13.18;4.75;;;;;;;;;;5055013;28;20029;-34
2023/05/24 05:23:00;;;;;;;12.50;4.45;;;;;;;;;;5054973;28;20056;-36
2023/05/24 05:25:26;;;;;;;17.48;5.45;;;;;;;;;;5054092;28;20025;-36
2023/05/24 05:27:52;;;;;;;17.52;5.30;;;;;;;;;;5055104;28;20025;-36
2023/05/24 05:30:18;;;;;;;16.05;5.40;;;;;;;;;;5054989;28;20037;-35
2023/05/24 05:32:44;;;;;;;13.32;4.90;;;;;;;;;;5055005;28;20021;-34
2023/05/24 05:35:10;;;;;;;15.30;4.60;;;;;;;;;;5054632;28;20426;-35
2023/05/24 05:37:36;;;;;;;17.73;5.25;;;;;;;;;;5054729;28;20097;-33
2023/05/24 05:40:03;;;;;;;12.55;4.70;;;;;;;;;;5054566;28;20048;-38
2023/05/24 05:42:29;;;;;;;13.13;4.85;;;;;;;;;;5054546;28;20478;-35
2023/05/24 05:44:55;;;;;;;13.35;4.40;;;;;;;;;;5054753;28;20029;-35
2023/05/24 05:47:21;;;;;;;13.77;4.40;;;;;;;;;;5054389;28;20032;-35
2023/05/24 05:49:47;;;;;;;12.32;4.45;;;;;;;;;;5054534;28;20028;-33
2023/05/24 05:52:13;;;;;;;15.20;4.55;;;;;;;;;;5054295;28;20150;-35
2023/05/24 05:54:39;;;;;;;11.88;4.72;;;;;;;;;;5054253;28;20033;-37
2023/05/24 05:57:07;;;;;;;15.20;4.47;;;;;;;;;;5054407;28;20040;-35
2023/05/24 05:59:34;;;;;;;12.43;4.60;;;;;;;;;;5054569;28;20033;-34
2023/05/24 06:02:00;;;;;;;14.05;4.38;;;;;;;;;;5054205;28;20181;-38
2023/05/24 06:04:27;;;;;;;15.98;4.32;;;;;;;;;;5054308;28;20088;-35
2023/05/24 06:06:53;;;;;;;16.65;5.18;;;;;;;;;;5054235;28;20028;-35
2023/05/24 06:09:19;;;;;;;15.27;4.20;;;;;;;;;;5052766;28;20049;-38
2023/05/24 06:11:45;;;;;;;7.95;4.03;;;;;;;;;;5053835;28;20021;-37
2023/05/24 06:14:12;;;;;;;13.60;4.43;;;;;;;;;;5054090;28;20029;-34
2023/05/24 06:16:42;;;;;;;13.95;5.25;;;;;;;;;;5053936;28;20020;-36
2023/05/24 06:19:08;;;;;;;16.15;4.88;;;;;;;;;;5053915;28;20039;-32
2023/05/24 06:21:36;;;;;;;15.63;4.60;;;;;;;;;;5053448;28;20466;-35
2023/05/24 06:24:02;;;;;;;14.98;4.90;;;;;;;;;;5053473;28;20475;-34
2023/05/24 06:26:29;;;;;;;11.05;4.38;;;;;;;;;;5053412;28;20013;-35
2023/05/24 06:28:55;;;;;;;16.35;5.50;;;;;;;;;;5053356;28;20028;-36
2023/05/24 06:31:21;;;;;;;14.88;4.65;;;;;;;;;;5053631;28;20075;-38
2023/05/24 06:33:47;;;;;;;15.18;5.10;;;;;;;;;;5053623;28;20108;-34
2023/05/24 06:36:13;;;;;;;14.45;4.78;;;;;;;;;;5053563;28;20056;-34
2023/05/24 06:38:39;;;;;;;17.65;4.93;;;;;;;;;;5053271;28;20021;-34
2023/05/24 06:41:05;;;;;;;15.80;4.88;;;;;;;;;;5053481;28;20473;-38
2023/05/24 06:43:32;;;;;;;14.05;5.10;;;;;;;;;;5053484;28;20017;-34
2023/05/24 06:45:58;;;;;;;14.35;4.80;;;;;;;;;;5053428;28;20017;-34
2023/05/24 06:48:24;;;;;;;13.65;4.47;;;;;;;;;;5053044;28;20047;-38
2023/05/24 06:50:50;;;;;;;13.73;4.60;;;;;;;;;;5052375;28;20025;-36
2023/05/24 06:53:16;;;;;;;16.92;5.05;;;;;;;;;;5052552;28;20025;-33
2023/05/24 06:55:42;;;;;;;14.25;4.55;;;;;;;;;;5053076;28;20472;-38
2023/05/24 06:58:13;;;;;;;15.55;5.28;;;;;;;;;;5053236;28;20546;-34
2023/05/24 07:00:39;;;;;;;14.90;4.70;;;;;;;;;;5052755;28;20025;-34
2023/05/24 07:03:04;;;;;;;13.40;5.28;;;;;;;;;;5053148;28;20496;-37
2023/05/24 07:05:31;;;;;;;14.90;4.90;;;;;;;;;;5052978;28;20044;-35
2023/05/24 07:07:57;;;;;;;15.65;5.95;;;;;;;;;;5052920;28;20477;-36
2023/05/24 07:10:23;;;;;;;12.15;4.55;;;;;;;;;;5052873;28;20081;-34
2023/05/24 07:12:48;;;;;;;15.93;5.32;;;;;;;;;;5052647;28;20078;-36
2023/05/24 07:15:14;;;;;;;14.38;5.18;;;;;;;;;;5052445;28;20056;-32
2023/05/24 07:17:40;;;;;;;16.02;5.43;;;;;;;;;;5052761;28;20024;-33
2023/05/24 07:20:10;;;;;;;14.82;5.03;;;;;;;;;;5052493;28;20017;-36
2023/05/24 07:22:36;;;;;;;15.05;5.22;;;;;;;;;;5052283;28;20028;-35
2023/05/24 07:25:03;;;;;;;18.90;6.28;;;;;;;;;;5052579;28;20025;-34
2023/05/24 07:27:29;;;;;;;13.00;5.50;;;;;;;;;;5052921;28;20052;-33
2023/05/24 07:29:55;;;;;;;16.15;5.55;;;;;;;;;;5052433;28;20076;-34
2023/05/24 07:32:21;;;;;;;13.00;5.00;;;;;;;;;;5052474;28;20028;-33
2023/05/24 07:34:49;;;;;;;18.80;4.82;;;;;;;;;;5052441;28;20032;-35
2023/05/24 07:37:16;;;;;;;10.40;4.88;;;;;;;;;;5052446;28;20016;-35
2023/05/24 07:39:42;;;;;;;13.98;4.80;;;;;;;;;;5052086;28;20516;-34
2023/05/24 07:42:08;;;;;;;19.35;6.38;;;;;;;;;;5052304;28;20033;-32
2023/05/24 07:44:34;;;;;;;13.48;5.53;;;;;;;;;;5052266;28;20025;-32
2023/05/24 07:47:01;;;;;;;16.60;5.05;;;;;;;;;;5052158;28;20025;-34
2023/05/24 07:49:27;;;;;;;16.55;4.95;;;;;;;;;;5051872;28;20477;-35
2023/05/24 07:51:57;;;;;;;17.90;5.40;;;;;;;;;;5051993;28;20075;-38
2023/05/24 07:54:23;;;;;;;16.92;5.05;;;;;;;;;;5052089;28;20024;-35
2023/05/24 07:56:49;;;;;;;15.20;5.30;;;;;;;;;;5052120;28;20029;-35
2023/05/24 07:59:15;;;;;;;17.63;5.85;;;;;;;;;;5052066;28;20032;-37
2023/05/24 08:01:41;;;;;;;11.20;4.93;;;;;;;;;;5052029;28;20025;-38
2023/05/24 08:04:08;;;;;;;17.25;5.63;;;;;;;;;;5052106;28;20025;-35
2023/05/24 08:06:34;;;;;;;16.08;5.72;;;;;;;;;;5052378;28;20386;-36
2023/05/24 08:09:04;;;;;;;15.95;5.07;;;;;;;;;;5051724;28;20104;-33
2023/05/24 08:11:30;;;;;;;16.73;5.07;;;;;;;;;;5052102;28;20060;-32
2023/05/24 08:13:56;;;;;;;16.00;5.55;;;;;;;;;;5051910;28;20059;-33
2023/05/24 08:16:22;;;;;;;12.00;5.28;;;;;;;;;;5051916;28;20032;-33
2023/05/24 08:18:48;;;;;;;16.17;5.28;;;;;;;;;;5052066;28;20029;-35
2023/05/24 08:21:13;;;;;;;16.02;6.07;;;;;;;;;;5051866;28;20074;-32
2023/05/24 08:23:40;;;;;;;17.63;5.65;;;;;;;;;;5052125;28;20022;-34
2023/05/24 08:26:06;;;;;;;17.63;5.90;;;;;;;;;;5051829;28;20021;-37
2023/05/24 08:28:32;;;;;;;14.23;5.20;;;;;;;;;;5050541;28;20466;-35
2023/05/24 08:30:58;;;;;;;18.05;5.93;;;;;;;;;;5051710;28;20071;-38
2023/05/24 08:33:24;;;;;;;22.75;6.15;;;;;;;;;;5051767;28;20025;-33
2023/05/24 08:35:50;;;;;;;16.13;5.90;;;;;;;;;;5051863;28;20029;-32
2023/05/24 08:38:17;;;;;;;13.88;5.90;;;;;;;;;;5052056;28;20031;-35
2023/05/24 08:40:43;;;;;;;17.20;5.25;;;;;;;;;;5051644;28;20055;-32
2023/05/24 08:43:11;;;;;;;17.83;6.20;;;;;;;;;;5051795;28;20437;-33
2023/05/24 08:45:37;;;;;;;19.15;6.30;;;;;;;;;;5052011;28;20381;-34
2023/05/24 08:48:05;;;;;;;15.30;5.28;;;;;;;;;;5051737;28;20035;-33
2023/05/24 08:50:31;;;;;;;20.60;6.32;;;;;;;;;;5051615;28;20063;-34
2023/05/24 08:52:58;;;;;;;15.90;6.30;;;;;;;;;;5051733;28;20448;-33
2023/05/24 08:55:25;;;;;;;16.58;4.82;;;;;;;;;;5051470;28;20044;-45
2023/05/24 08:57:51;;;;;;;18.70;6.00;;;;;;;;;;5051303;28;20453;-44
2023/05/24 09:00:18;;;;;;;16.10;5.60;;;;;;;;;;5052496;28;20107;-44
2023/05/24 09:02:45;;;;;;;18.80;5.63;;;;;;;;;;5054812;28;20572;-44
2023/05/24 09:05:13;;;;;;;16.80;5.55;;;;;;;;;;5054868;28;20049;-45
2023/05/24 09:07:39;;;;;;;18.58;6.22;;;;;;;;;;5054797;28;20033;-45
2023/05/24 09:10:07;;;;;;;14.07;5.63;;;;;;;;;;5054956;28;20042;-44
2023/05/24 09:12:35;;;;;;;15.75;5.78;;;;;;;;;;5053312;28;20064;-44
2023/05/24 09:15:01;;;;;;;14.50;5.63;;;;;;;;;;5054654;28;20048;-44
2023/05/24 09:17:27;;;;;;;12.88;5.40;;;;;;;;;;5054811;28;20452;-45
2023/05/24 09:19:53;;;;;;;20.58;5.15;;;;;;;;;;5054562;28;20556;-45
2023/05/24 09:22:24;;;;;;;17.60;5.70;;;;;;;;;;5054427;28;20021;-44
2023/05/24 09:24:50;;;;;;;17.63;5.30;;;;;;;;;;5054880;28;20031;-44
2023/05/24 09:27:17;;;;;;;14.73;4.47;;;;;;;;;;5054166;28;20021;-45
2023/05/24 09:29:47;;;;;;;17.67;5.15;;;;;;;;;;5054186;28;20020;-45
2023/05/24 09:32:13;;;;;;;16.00;5.07;;;;;;;;;;5053970;28;20109;-43
2023/05/24 09:34:40;;;;;;;13.73;5.00;;;;;;;;;;5054106;28;20033;-43
2023/05/24 09:37:08;;;;;;;18.83;5.60;;;;;;;;;;5054083;28;20032;-44
2023/05/24 09:39:35;;;;;;;17.13;4.97;;;;;;;;;;5053760;28;20581;-44
2023/05/24 09:42:02;;;;;;;17.73;5.18;;;;;;;;;;5053991;28;20547;-44
2023/05/24 09:44:28;;;;;;;12.45;5.07;;;;;;;;;;5053932;28;20029;-43
2023/05/24 09:47:01;;;;;;;14.38;5.28;;;;;;;;;;5053920;28;20021;-44
2023/05/24 09:49:27;;;;;;;16.08;5.78;;;;;;;;;;5053959;28;20508;-44
2023/05/24 09:51:53;;;;;;;18.45;5.25;;;;;;;;;;5053722;28;20025;-44
2023/05/24 09:54:20;;;;;;;10.88;4.03;;;;;;;;;;5053717;28;20484;-43
2023/05/24 09:56:46;;;;;;;16.75;4.47;;;;;;;;;;5052523;28;20044;-45
2023/05/24 09:59:12;;;;;;;14.30;4.63;;;;;;;;;;5053721;28;20057;-45
2023/05/24 10:01:38;;;;;;;10.88;4.03;;;;;;;;;;5053431;28;20025;-44
2023/05/24 10:04:06;;;;;;;10.25;4.20;;;;;;;;;;5053703;28;20456;-44
2023/05/24 10:06:38;;;;;;;13.85;4.53;;;;;;;;;;5053491;28;20100;-44
2023/05/24 10:09:08;;;;;;;12.80;3.83;;;;;;;;;;5053780;28;20028;-44
2023/05/24 10:11:37;;;;;;;11.70;4.57;;;;;;;;;;5053085;28;20359;-44
2023/05/24 10:14:08;;;;;;;11.93;4.93;;;;;;;;;;5053419;28;20021;-44
2023/05/24 10:16:37;;;;;;;12.20;4.40;;;;;;;;;;5053759;28;20060;-32
2023/05/24 10:19:03;;;;;;;15.63;4.80;;;;;;;;;;5053978;28;20473;-33
2023/05/24 10:21:31;;;;;;;10.73;5.00;;;;;;;;;;5053906;28;20043;-32
2023/05/24 10:23:58;;;;;;;11.70;5.22;;;;;;;;;;5053839;28;20562;-34
2023/05/24 10:26:25;;;;;;;15.77;5.30;;;;;;;;;;5053576;28;20029;-36
2023/05/24 10:28:54;;;;;;;14.32;5.95;;;;;;;;;;5053885;28;20566;-35
2023/05/24 10:31:33;;;;;;;19.92;6.68;;;;;;;;;;5053542;28;20032;-33
2023/05/24 10:34:01;;;;;;;16.08;6.35;;;;;;;;;;5053456;28;20033;-34
2023/05/24 10:36:27;;;;;;;19.02;6.57;;;;;;;;;;5053429;28;20029;-32
2023/05/24 10:38:54;;;;;;;16.10;6.47;;;;;;;;;;5053296;28;20094;-33
2023/05/24 10:41:21;;;;;;;14.25;5.85;;;;;;;;;;5052175;28;20029;-33
2023/05/24 10:43:47;;;;;;;12.52;6.20;;;;;;;;;;5053541;28;20070;-34
2023/05/24 10:46:15;;;;;;;17.40;7.10;;;;;;;;;;5053339;28;20021;-33
2023/05/24 10:48:41;;;;;;;21.38;7.18;;;;;;;;;;5052158;28;20029;-35
2023/05/24 10:51:26;;;;;;;19.88;6.88;;;;;;;;;;5053297;28;20104;-32
2023/05/24 10:53:52;;;;;;;16.23;7.60;;;;;;;;;;5053440;28;20068;-32
2023/05/24 10:56:19;;;;;;;20.33;8.05;;;;;;;;;;5053085;28;20060;-33
2023/05/24 10:58:56;;;;;;;16.15;7.30;;;;;;;;;;5053045;28;20482;-32
2023/05/24 11:01:26;;;;;;;20.33;7.28;;;;;;;;;;5052922;28;20525;-31
2023/05/24 11:03:52;;;;;;;20.02;7.97;;;;;;;;;;5051557;28;20025;-32
2023/05/24 11:06:19;;;;;;;14.70;7.65;;;;;;;;;;5052982;28;20021;-31
2023/05/24 11:08:45;;;;;;;17.98;8.38;;;;;;;;;;5051803;28;20033;-33
2023/05/24 11:11:12;;;;;;;19.00;7.28;;;;;;;;;;5053003;28;20029;-33
2023/05/24 11:13:39;;;;;;;17.20;6.78;;;;;;;;;;5052965;28;20029;-38
2023/05/24 11:16:05;;;;;;;20.13;7.28;;;;;;;;;;5052834;28;20469;-37
2023/05/24 11:18:31;;;;;;;17.10;7.30;;;;;;;;;;5052950;28;20032;-33
2023/05/24 11:21:00;;;;;;;19.80;7.55;;;;;;;;;;5052558;28;20035;-33
2023/05/24 11:23:26;;;;;;;14.43;6.22;;;;;;;;;;5052327;28;20078;-33
2023/05/24 11:25:52;;;;;;;17.23;6.32;;;;;;;;;;5052478;28;20021;-32
2023/05/24 11:28:18;;;;;;;15.80;6.32;;;;;;;;;;5052452;28;20032;-34
2023/05/24 11:30:45;;;;;;;17.08;6.55;;;;;;;;;;5052876;28;20055;-39
2023/05/24 11:33:14;;;;;;;14.77;6.78;;;;;;;;;;5052417;28;20075;-32
2023/05/24 11:35:41;;;;;;;17.63;6.30;;;;;;;;;;5052767;28;20021;-33
2023/05/24 11:38:13;;;;;;;17.17;5.95;;;;;;;;;;5052659;28;20025;-34
2023/05/24 11:40:43;;;;;;;15.50;5.38;;;;;;;;;;5051890;28;20045;-36
2023/05/24 11:43:14;;;;;;;14.88;6.32;;;;;;;;;;5052160;28;20132;-36
2023/05/24 11:45:41;;;;;;;15.07;5.90;;;;;;;;;;5052333;28;20052;-32
2023/05/24 11:48:08;;;;;;;16.73;5.78;;;;;;;;;;5050858;28;20036;-32
2023/05/24 11:50:38;;;;;;;10.98;5.60;;;;;;;;;;5052442;28;20386;-33
2023/05/24 11:53:04;;;;;;;11.77;5.40;;;;;;;;;;5052242;28;20078;-33
2023/05/24 11:55:31;;;;;;;11.68;5.18;;;;;;;;;;5052160;28;20071;-33
2023/05/24 11:57:58;;;;;;;14.68;5.70;;;;;;;;;;5051877;28;20033;-32
2023/05/24 12:00:24;;;;;;;13.25;5.00;;;;;;;;;;5052153;28;20432;-33
2023/05/24 12:02:51;;;;;;;15.57;6.18;;;;;;;;;;5052026;28;20028;-34
2023/05/24 12:05:18;;;;;;;13.30;5.10;;;;;;;;;;5050828;28;20481;-34
2023/05/24 12:07:47;;;;;;;18.17;5.60;;;;;;;;;;5052002;28;20021;-34
2023/05/24 12:10:14;;;;;;;12.80;5.38;;;;;;;;;;5051897;28;20025;-34
2023/05/24 12:12:43;;;;;;;13.57;6.07;;;;;;;;;;5052501;28;20028;-33
2023/05/24 12:15:10;;;;;;;11.77;5.20;;;;;;;;;;5052489;28;20055;-34
2023/05/24 12:17:36;;;;;;;12.18;5.47;;;;;;;;;;5051990;28;20048;-34
2023/05/24 12:20:04;;;;;;;14.43;5.47;;;;;;;;;;5051918;28;20025;-36
2023/05/24 12:22:30;;;;;;;18.35;4.68;;;;;;;;;;5051975;28;20029;-32
2023/05/24 12:24:57;;;;;;;13.43;5.47;;;;;;;;;;5051927;28;20033;-32
2023/05/24 12:27:30;;;;;;;11.52;5.20;;;;;;;;;;5051686;28;20053;-32
2023/05/24 12:29:56;;;;;;;12.93;4.75;;;;;;;;;;5052273;28;20595;-33
2023/05/24 12:32:22;;;;;;;17.75;4.68;;;;;;;;;;5051721;28;20025;-32
2023/05/24 12:34:49;;;;;;;13.50;4.80;;;;;;;;;;5054252;28;20025;-34
2023/05/24 12:37:17;;;;;;;14.70;4.63;;;;;;;;;;5055806;28;20528;-34
2023/05/24 12:39:43;;;;;;;12.15;5.00;;;;;;;;;;5055727;28;20048;-35
2023/05/24 12:42:10;;;;;;;14.65;4.68;;;;;;;;;;5055365;28;20033;-34
2023/05/24 12:44:37;;;;;;;8.57;4.05;;;;;;;;;;5055651;28;20021;-33
2023/05/24 12:47:08;;;;;;;12.60;5.20;;;;;;;;;;5055381;28;20028;-31
2023/05/24 12:49:34;;;;;;;10.45;4.60;;;;;;;;;;5054407;28;20060;-32
2023/05/24 12:52:03;;;;;;;16.08;4.95;;;;;;;;;;5055603;28;20033;-32
2023/05/24 12:54:29;;;;;;;8.65;4.55;;;;;;;;;;5055468;28;20029;-33
2023/05/24 12:56:55;;;;;;;13.30;4.40;;;;;;;;;;5055176;28;20104;-33
2023/05/24 12:59:21;;;;;;;12.55;4.50;;;;;;;;;;5055371;28;20033;-33
2023/05/24 13:01:50;;;;;;;11.80;4.57;;;;;;;;;;5054049;28;20063;-35
2023/05/24 13:04:19;;;;;;;11.07;4.63;;;;;;;;;;5055168;28;20024;-32
2023/05/24 13:06:46;;;;;;;9.93;3.50;;;;;;;;;;5055309;28;20021;-33
2023/05/24 13:09:13;;;;;;;13.65;4.13;;;;;;;;;;5054953;28;20021;-31
2023/05/24 13:11:39;;;;;;;10.55;4.15;;;;;;;;;;5054127;28;20032;-32
2023/05/24 13:14:05;;;;;;;9.30;3.88;;;;;;;;;;5054996;28;20474;-36
2023/05/24 13:16:31;;;;;;;9.20;4.30;;;;;;;;;;5054846;28;20099;-32
2023/05/24 13:18:57;;;;;;;11.15;4.75;;;;;;;;;;5054804;28;20036;-32
2023/05/24 13:21:23;;;;;;;9.77;3.97;;;;;;;;;;5055228;28;20464;-32
2023/05/24 13:23:49;;;;;;;11.27;4.25;;;;;;;;;;5055148;28;20377;-32
2023/05/24 13:26:15;;;;;;;9.23;4.22;;;;;;;;;;5054849;28;20486;-34
2023/05/24 13:28:41;;;;;;;9.30;3.90;;;;;;;;;;5055021;28;20048;-32
2023/05/24 13:31:08;;;;;;;12.93;4.20;;;;;;;;;;5054699;28;20377;-32
2023/05/24 13:33:34;;;;;;;8.77;4.13;;;;;;;;;;5054726;28;20497;-37
2023/05/24 13:36:00;;;;;;;10.05;4.20;;;;;;;;;;5054894;28;20025;-33
2023/05/24 13:38:26;;;;;;;13.10;4.22;;;;;;;;;;5054682;28;20116;-32
2023/05/24 13:40:53;;;;;;;10.48;4.35;;;;;;;;;;5054163;28;20529;-32
2023/05/24 13:43:19;;;;;;;12.88;4.40;;;;;;;;;;5054604;28;20021;-33
2023/05/24 13:45:45;;;;;;;8.82;3.72;;;;;;;;;;5053789;28;20374;-33
2023/05/24 13:48:11;;;;;;;10.95;4.55;;;;;;;;;;5054515;28;20378;-33
2023/05/24 13:50:37;;;;;;;8.32;4.10;;;;;;;;;;5054612;28;20117;-38
2023/05/24 13:53:04;;;;;;;8.98;3.75;;;;;;;;;;5054081;28;20098;-32
2023/05/24 13:55:31;;;;;;;11.75;4.25;;;;;;;;;;5054290;28;20439;-33
2023/05/24 13:57:57;;;;;;;7.28;3.58;;;;;;;;;;5054331;28;20096;-33
2023/05/24 14:00:23;;;;;;;10.80;4.53;;;;;;;;;;5054609;28;20099;-36
2023/05/24 14:02:50;;;;;;;11.02;4.40;;;;;;;;;;5053989;28;20029;-34
2023/05/24 14:05:17;;;;;;;12.13;4.93;;;;;;;;;;5054159;28;20025;-34
2023/05/24 14:07:43;;;;;;;8.23;4.10;;;;;;;;;;5053223;28;20024;-33
2023/05/24 14:10:12;;;;;;;10.85;4.57;;;;;;;;;;5053910;28;20392;-38
2023/05/24 14:12:38;;;;;;;12.45;4.28;;;;;;;;;;5053866;28;20064;-35
2023/05/24 14:15:05;;;;;;;12.18;4.65;;;;;;;;;;5053958;28;20068;-40
2023/05/24 14:17:31;;;;;;;9.60;4.03;;;;;;;;;;5053996;28;20063;-32
2023/05/24 14:19:57;;;;;;;9.57;3.90;;;;;;;;;;5053976;28;20087;-33
2023/05/24 14:22:24;;;;;;;10.10;4.00;;;;;;;;;;5053664;28;20028;-32
2023/05/24 14:24:50;;;;;;;9.38;4.38;;;;;;;;;;5053611;28;20131;-32
2023/05/24 14:27:16;;;;;;;11.18;4.03;;;;;;;;;;5052387;28;20017;-44
2023/05/24 14:29:42;;;;;;;11.32;4.25;;;;;;;;;;5051972;28;20466;-45